sensor_id;sensor_type;location;lat;lon;timestamp;temperature;humidity
45311;SHT31;68264;51.540;5.854;2023-04-24T00:03:19;9.7;90.6
45311;SHT31;68264;51.540;5.854;2023-04-24T00:19:49;9.8;90.4
45311;SHT31;68264;51.540;5.854;2023-04-24T00:33:48;9.7;89.3
45311;SHT31;68264;51.540;5.854;2023-04-24T00:47:47;9.6;88.5
45311;SHT31;68264;51.540;5.854;2023-04-24T01:03:52;9.5;87.9
45311;SHT31;68264;51.540;5.854;2023-04-24T01:22:29;9.3;89.3
45311;SHT31;68264;51.540;5.854;2023-04-24T01:38:59;9.3;88.8
45311;SHT31;68264;51.540;5.854;2023-04-24T01:52:58;9.2;89.4
45311;SHT31;68264;51.540;5.854;2023-04-24T02:06:57;9.2;89.7
45311;SHT31;68264;51.540;5.854;2023-04-24T02:20:56;9.1;90.5
45311;SHT31;68264;51.540;5.854;2023-04-24T02:34:55;9.1;90.3
45311;SHT31;68264;51.540;5.854;2023-04-24T02:48:55;9.1;89.7
45311;SHT31;68264;51.540;5.854;2023-04-24T03:03:55;9.1;89.4
45311;SHT31;68264;51.540;5.854;2023-04-24T03:19:56;9.1;89.0
45311;SHT31;68264;51.540;5.854;2023-04-24T03:35:24;9.2;87.4
45311;SHT31;68264;51.540;5.854;2023-04-24T03:50:13;9.1;87.7
45311;SHT31;68264;51.540;5.854;2023-04-24T04:06:37;9.2;86.6
45311;SHT31;68264;51.540;5.854;2023-04-24T04:22:37;9.2;86.0
45311;SHT31;68264;51.540;5.854;2023-04-24T04:37:05;9.0;86.9
45311;SHT31;68264;51.540;5.854;2023-04-24T04:52:26;8.9;87.9
45311;SHT31;68264;51.540;5.854;2023-04-24T05:07:25;8.8;89.1
45311;SHT31;68264;51.540;5.854;2023-04-24T05:22:26;8.6;90.1
45311;SHT31;68264;51.540;5.854;2023-04-24T05:37:54;8.5;90.5
45311;SHT31;68264;51.540;5.854;2023-04-24T05:52:43;8.5;91.7
45311;SHT31;68264;51.540;5.854;2023-04-24T06:07:02;8.5;90.4
45311;SHT31;68264;51.540;5.854;2023-04-24T06:22:02;8.5;90.7
45311;SHT31;68264;51.540;5.854;2023-04-24T06:37:31;8.5;90.6
45311;SHT31;68264;51.540;5.854;2023-04-24T06:51:50;8.5;91.2
45311;SHT31;68264;51.540;5.854;2023-04-24T07:05:49;8.5;91.3
45311;SHT31;68264;51.540;5.854;2023-04-24T07:19:48;8.5;90.3
45311;SHT31;68264;51.540;5.854;2023-04-24T07:34:16;8.5;91.5
45311;SHT31;68264;51.540;5.854;2023-04-24T07:48:35;8.6;91.2
45311;SHT31;68264;51.540;5.854;2023-04-24T08:02:35;8.4;90.5
45311;SHT31;68264;51.540;5.854;2023-04-24T08:16:34;8.3;90.6
45311;SHT31;68264;51.540;5.854;2023-04-24T08:30:33;8.4;90.6
45311;SHT31;68264;51.540;5.854;2023-04-24T08:45:01;8.4;90.7
45311;SHT31;68264;51.540;5.854;2023-04-24T09:00:53;8.3;90.1
45311;SHT31;68264;51.540;5.854;2023-04-24T09:17:56;8.4;88.9
45311;SHT31;68264;51.540;5.854;2023-04-24T09:33:26;8.7;87.0
45311;SHT31;68264;51.540;5.854;2023-04-24T09:47:25;8.9;87.7
45311;SHT31;68264;51.540;5.854;2023-04-24T10:01:24;9.5;85.4
45311;SHT31;68264;51.540;5.854;2023-04-24T10:16:56;9.2;81.9
45311;SHT31;68264;51.540;5.854;2023-04-24T10:32:55;9.1;82.6
45311;SHT31;68264;51.540;5.854;2023-04-24T10:47:15;9.6;78.4
45311;SHT31;68264;51.540;5.854;2023-04-24T11:01:14;9.7;75.9
45311;SHT31;68264;51.540;5.854;2023-04-24T11:15:13;9.3;75.4
45311;SHT31;68264;51.540;5.854;2023-04-24T11:29:12;9.4;77.1
45311;SHT31;68264;51.540;5.854;2023-04-24T11:43:40;9.1;75.7
45311;SHT31;68264;51.540;5.854;2023-04-24T11:57:59;9.6;74.1
45311;SHT31;68264;51.540;5.854;2023-04-24T12:11:58;9.9;75.4
45311;SHT31;68264;51.540;5.854;2023-04-24T12:25:57;9.6;73.9
45311;SHT31;68264;51.540;5.854;2023-04-24T12:40:25;9.5;77.8
45311;SHT31;68264;51.540;5.854;2023-04-24T12:54:45;9.9;75.2
45311;SHT31;68264;51.540;5.854;2023-04-24T13:08:44;10.1;73.5
45311;SHT31;68264;51.540;5.854;2023-04-24T13:22:43;9.7;75.2
45311;SHT31;68264;51.540;5.854;2023-04-24T13:37:11;8.9;79.8
45311;SHT31;68264;51.540;5.854;2023-04-24T13:51:59;9.7;79.7
45311;SHT31;68264;51.540;5.854;2023-04-24T14:07:19;9.6;77.8
45311;SHT31;68264;51.540;5.854;2023-04-24T14:22:19;8.9;82.6
45311;SHT31;68264;51.540;5.854;2023-04-24T14:36:18;9.4;80.8
45311;SHT31;68264;51.540;5.854;2023-04-24T14:50:46;10.1;76.3
45311;SHT31;68264;51.540;5.854;2023-04-24T15:05:05;10.3;76.5
45311;SHT31;68264;51.540;5.854;2023-04-24T15:19:04;10.4;71.4
45311;SHT31;68264;51.540;5.854;2023-04-24T15:33:03;10.1;74.2
45311;SHT31;68264;51.540;5.854;2023-04-24T15:47:03;8.6;80.7
45311;SHT31;68264;51.540;5.854;2023-04-24T16:01:02;8.7;79.4
45311;SHT31;68264;51.540;5.854;2023-04-24T16:15:01;9.4;77.4
45311;SHT31;68264;51.540;5.854;2023-04-24T16:29:29;9.9;75.6
45311;SHT31;68264;51.540;5.854;2023-04-24T16:43:48;10.0;72.7
45311;SHT31;68264;51.540;5.854;2023-04-24T16:57:47;10.2;70.6
45311;SHT31;68264;51.540;5.854;2023-04-24T17:11:46;10.0;68.3
45311;SHT31;68264;51.540;5.854;2023-04-24T17:25:45;10.0;70.5
45311;SHT31;68264;51.540;5.854;2023-04-24T17:39:44;9.8;71.5
45311;SHT31;68264;51.540;5.854;2023-04-24T17:53:43;9.4;70.5
45311;SHT31;68264;51.540;5.854;2023-04-24T18:08:43;9.1;71.1
45311;SHT31;68264;51.540;5.854;2023-04-24T18:23:43;8.7;73.2
45311;SHT31;68264;51.540;5.854;2023-04-24T18:38:11;8.7;72.7
45311;SHT31;68264;51.540;5.854;2023-04-24T18:53:31;8.5;74.8
45311;SHT31;68264;51.540;5.854;2023-04-24T19:09:00;8.4;76.2
45311;SHT31;68264;51.540;5.854;2023-04-24T19:23:19;8.1;77.9
45311;SHT31;68264;51.540;5.854;2023-04-24T19:37:19;7.7;78.4
45311;SHT31;68264;51.540;5.854;2023-04-24T19:51:18;7.4;78.7
45311;SHT31;68264;51.540;5.854;2023-04-24T20:05:17;7.1;80.0
45311;SHT31;68264;51.540;5.854;2023-04-24T20:19:16;6.8;80.7
45311;SHT31;68264;51.540;5.854;2023-04-24T20:33:44;6.6;81.5
45311;SHT31;68264;51.540;5.854;2023-04-24T20:48:32;6.5;81.1
45311;SHT31;68264;51.540;5.854;2023-04-24T21:02:52;6.4;81.6
45311;SHT31;68264;51.540;5.854;2023-04-24T21:17:20;6.1;82.3
45311;SHT31;68264;51.540;5.854;2023-04-24T21:31:39;6.2;81.7
45311;SHT31;68264;51.540;5.854;2023-04-24T21:47:43;6.1;82.3
45311;SHT31;68264;51.540;5.854;2023-04-24T22:04:44;6.0;82.9
45311;SHT31;68264;51.540;5.854;2023-04-24T22:20:45;6.0;83.6
45311;SHT31;68264;51.540;5.854;2023-04-24T22:35:45;5.8;84.4
45311;SHT31;68264;51.540;5.854;2023-04-24T22:49:44;5.7;84.8
45311;SHT31;68264;51.540;5.854;2023-04-24T23:04:12;5.7;85.8
45311;SHT31;68264;51.540;5.854;2023-04-24T23:18:31;5.9;86.1
45311;SHT31;68264;51.540;5.854;2023-04-24T23:32:30;6.2;85.2
45311;SHT31;68264;51.540;5.854;2023-04-24T23:46:29;6.4;84.9
